Time;durP1;ratioP1;P1;durP2;ratioP2;P2;SDS_P1;SDS_P2;PMS_P1;PMS_P2;Temp;Humidity;BMP_temperature;BMP_pressure;BME280_temperature;BME280_humidity;BME280_pressure;Samples;Min_cycle;Max_cycle;Signal;HPM_P1;HPM_P2
2022/07/19 00:02:04;;;;;;;;;13.75;13.25;;;;;28.22;33.64;101360.94;5092759;27;49889;-74
2022/07/19 00:04:31;;;;;;;;;16.25;16.25;;;;;28.17;33.44;101355.72;5092402;27;50407;-73
2022/07/19 00:06:57;;;;;;;;;20.50;17.50;;;;;28.18;33.09;101357.50;5092504;27;49868;-74
2022/07/19 00:09:24;;;;;;;;;19.25;18.25;;;;;28.26;32.43;101361.66;5092157;27;49703;-74
2022/07/19 00:11:49;;;;;;;;;17.50;16.25;;;;;28.24;32.32;101365.31;5092539;27;49908;-74
2022/07/19 00:14:15;;;;;;;;;19.75;19.75;;;;;28.23;32.45;101362.69;5092291;27;49659;-74
2022/07/19 00:16:40;;;;;;;;;22.00;17.75;;;;;28.20;32.55;101360.13;5092290;27;49716;-74
2022/07/19 00:19:06;;;;;;;;;21.50;20.00;;;;;28.17;32.46;101360.22;5092402;27;49776;-76
2022/07/19 00:21:32;;;;;;;;;22.00;20.00;;;;;28.20;32.11;101360.13;5092553;27;49876;-73
2022/07/19 00:23:57;;;;;;;;;19.75;17.00;;;;;28.17;32.19;101349.44;5091781;27;50302;-72
2022/07/19 00:26:22;;;;;;;;;19.75;19.25;;;;;28.15;31.94;101346.81;5092230;27;49889;-76
2022/07/19 00:28:48;;;;;;;;;21.25;21.25;;;;;28.17;31.77;101346.75;5092167;27;49743;-74
2022/07/19 00:31:13;;;;;;;;;21.00;19.75;;;;;28.15;31.95;101351.31;5092352;27;49636;-74
2022/07/19 00:33:38;;;;;;;;;18.25;17.25;;;;;28.18;32.11;101351.19;5091340;27;50875;-74
2022/07/19 00:36:04;;;;;;;;;22.00;19.50;;;;;28.08;32.10;101334.50;5092433;27;50007;-73
2022/07/19 00:38:29;;;;;;;;;17.75;17.25;;;;;28.08;32.32;101344.44;5093876;27;49722;-73
2022/07/19 00:40:55;;;;;;;;;20.00;18.75;;;;;28.12;31.90;101348.78;5093647;27;49597;-74
2022/07/19 00:43:20;;;;;;;;;17.00;15.75;;;;;28.10;32.27;101354.25;5091453;27;49631;-73
2022/07/19 00:45:45;;;;;;;;;20.50;17.50;;;;;28.05;32.51;101348.16;5091604;27;53838;-71
2022/07/19 00:48:11;;;;;;;;;20.50;19.50;;;;;28.02;32.78;101352.81;5091687;27;49771;-68
2022/07/19 00:50:36;;;;;;;;;13.00;11.00;;;;;28.00;32.50;101352.88;5093628;27;49683;-73
2022/07/19 00:53:06;;;;;;;;;13.75;13.00;;;;;27.90;32.79;101347.00;5093302;27;49702;-73
2022/07/19 00:55:35;;;;;;;;;6.75;6.75;;;;;27.82;33.01;101341.03;5093718;27;49733;-70
2022/07/19 00:58:02;;;;;;;;;20.25;18.00;;;;;27.85;32.69;101342.72;5093185;27;49744;-68
2022/07/19 01:00:31;;;;;;;;;15.50;13.50;;;;;27.85;32.55;101342.72;5093887;27;49545;-70
2022/07/19 01:02:58;;;;;;;;;16.50;16.00;;;;;27.83;32.79;101339.22;5093376;27;50542;-71
2022/07/19 01:05:23;;;;;;;;;13.75;13.25;;;;;27.76;32.86;101335.00;5093454;27;49814;-68
2022/07/19 01:07:49;;;;;;;;;14.75;11.25;;;;;27.77;32.71;101345.72;5093531;27;50195;-68
2022/07/19 01:10:15;;;;;;;;;17.00;15.00;;;;;27.73;32.77;101330.63;5093447;27;50437;-72
2022/07/19 01:12:42;;;;;;;;;15.00;13.50;;;;;27.73;32.65;101336.03;5092807;27;50646;-73
2022/07/19 01:15:20;;;;;;;;;15.00;10.75;;;;;27.69;32.90;101328.09;5093408;27;49608;-69
2022/07/19 01:17:47;;;;;;;;;15.25;12.25;;;;;27.63;33.26;101326.53;5093456;27;49791;-73
2022/07/19 01:20:12;;;;;;;;;13.50;13.50;;;;;27.57;33.02;101324.06;5093412;27;49811;-67
2022/07/19 01:22:38;;;;;;;;;15.50;13.50;;;;;27.57;33.45;101321.38;5093000;27;50408;-68
2022/07/19 01:25:05;;;;;;;;;18.00;12.50;;;;;27.54;33.23;101324.19;5093321;27;49731;-68
2022/07/19 01:27:30;;;;;;;;;14.75;13.00;;;;;27.53;33.58;101333.22;5092988;27;49867;-68
2022/07/19 01:29:55;;;;;;;;;15.00;12.50;;;;;27.48;33.85;101324.44;5093615;27;49698;-68
2022/07/19 01:32:21;;;;;;;;;13.00;11.50;;;;;27.36;33.87;101315.91;5092973;27;50927;-68
2022/07/19 01:34:46;;;;;;;;;10.25;10.25;;;;;27.41;33.56;101325.63;5094496;27;49601;-67
2022/07/19 01:37:12;;;;;;;;;15.00;10.75;;;;;27.27;33.83;101308.19;5096650;27;49633;-68
2022/07/19 01:39:37;;;;;;;;;13.50;12.50;;;;;27.29;33.82;101314.38;5096819;27;49829;-68
2022/07/19 01:42:02;;;;;;;;;14.50;13.50;;;;;27.31;34.02;101328.72;5096077;27;50538;-67
2022/07/19 01:44:28;;;;;;;;;14.50;11.75;;;;;27.20;33.86;101298.56;5096316;27;49612;-69
2022/07/19 01:46:53;;;;;;;;;13.25;12.75;;;;;27.19;33.40;101304.91;5096487;27;49755;-74
2022/07/19 01:49:19;;;;;;;;;11.25;10.25;;;;;27.25;33.45;101315.47;5096495;27;49849;-74
2022/07/19 01:51:44;;;;;;;;;11.75;11.75;;;;;27.19;33.31;101307.59;5096203;27;50331;-73
2022/07/19 01:54:09;;;;;;;;;10.00;9.50;;;;;27.16;33.04;101296.09;5096190;27;49731;-72
2022/07/19 01:56:34;;;;;;;;;14.00;10.50;;;;;27.24;33.07;101302.94;5095986;27;50107;-70
2022/07/19 01:59:00;;;;;;;;;9.75;8.75;;;;;27.21;32.54;101303.03;5096439;27;49679;-71
2022/07/19 02:01:25;;;;;;;;;8.50;8.25;;;;;27.18;32.46;101305.84;5096057;27;49655;-69
2022/07/19 02:03:50;;;;;;;;;10.50;9.50;;;;;27.24;32.70;101320.91;5096003;27;49624;-68
2022/07/19 02:06:16;;;;;;;;;7.75;7.75;;;;;27.21;32.74;101319.19;5096306;27;49766;-73
2022/07/19 02:08:42;;;;;;;;;9.25;7.75;;;;;26.93;32.74;101273.59;5096488;27;49843;-70
2022/07/19 02:13:51;;;;;;;;;7.00;7.00;;;;;27.10;33.07;101313.34;5096087;27;49654;-68
2022/07/19 02:16:16;;;;;;;;;7.00;7.00;;;;;27.09;33.23;101306.22;5095907;27;49749;-72
2022/07/19 02:18:42;;;;;;;;;7.00;7.00;;;;;26.85;33.38;101286.47;5096248;27;49632;-69
2022/07/19 02:21:07;;;;;;;;;10.50;9.50;;;;;26.81;33.34;101263.25;5095859;27;50002;-68
2022/07/19 02:23:33;;;;;;;;;9.00;7.75;;;;;27.04;33.13;101308.22;5096005;27;49767;-69
2022/07/19 02:25:58;;;;;;;;;9.75;8.75;;;;;27.00;32.86;101302.03;5095955;27;49806;-70
2022/07/19 02:28:23;;;;;;;;;10.00;7.75;;;;;26.94;33.17;101298.72;5095514;27;49979;-73
2022/07/19 02:30:49;;;;;;;;;8.25;8.25;;;;;26.91;33.04;101301.50;5095272;27;55906;-73
2022/07/19 02:33:14;;;;;;;;;10.00;8.75;;;;;26.86;33.86;101295.44;5095760;27;49733;-70
2022/07/19 02:35:39;;;;;;;;;13.25;10.25;;;;;26.79;33.84;101286.69;5095904;27;49857;-72
2022/07/19 02:38:05;;;;;;;;;12.50;10.25;;;;;26.76;33.71;101292.22;5095912;27;49827;-68
2022/07/19 02:40:30;;;;;;;;;10.75;9.25;;;;;26.68;33.42;101284.41;5095535;27;50559;-73
2022/07/19 02:42:55;;;;;;;;;7.50;7.50;;;;;26.67;33.88;101277.28;5095347;27;49857;-69
2022/07/19 02:45:21;;;;;;;;;12.50;12.50;;;;;26.68;33.92;101291.63;5095286;27;49729;-72
2022/07/19 02:47:47;;;;;;;;;9.25;9.25;;;;;26.52;33.66;101259.00;5095575;27;49697;-73
2022/07/19 02:50:12;;;;;;;;;7.25;7.00;;;;;26.57;34.28;101286.63;5095272;27;51435;-68
2022/07/19 02:52:38;;;;;;;;;9.00;8.50;;;;;26.52;34.21;101278.72;5095379;27;49600;-72
2022/07/19 02:55:03;;;;;;;;;7.75;7.75;;;;;26.54;34.41;101281.38;5095506;27;49973;-73
2022/07/19 02:57:29;;;;;;;;;8.75;6.75;;;;;26.50;33.84;101272.50;5095259;27;49827;-73
2022/07/19 02:59:54;;;;;;;;;13.50;8.75;;;;;26.49;34.31;101275.25;5095085;27;49869;-71
2022/07/19 03:02:20;;;;;;;;;7.00;7.00;;;;;26.46;34.68;101268.19;5095315;27;49779;-68
2022/07/19 03:04:45;;;;;;;;;17.00;13.25;;;;;26.44;34.59;101274.53;5095272;27;49702;-72
2022/07/19 03:07:10;;;;;;;;;12.00;10.50;;;;;26.30;34.68;101255.31;5095421;27;49762;-68
2022/07/19 03:09:36;;;;;;;;;10.75;9.75;;;;;26.33;34.29;101263.25;5094643;27;50559;-69
2022/07/19 03:12:02;;;;;;;;;4.50;4.50;;;;;26.36;34.82;101266.75;5094834;27;49702;-73
2022/07/19 03:14:27;;;;;;;;;8.75;8.00;;;;;26.30;34.76;101274.16;5095030;27;49672;-72
2022/07/19 03:16:53;;;;;;;;;10.00;8.50;;;;;26.30;34.95;101276.84;5095073;27;49601;-70
2022/07/19 03:19:18;;;;;;;;;8.00;8.00;;;;;26.23;34.68;101271.66;5094898;27;49734;-67
2022/07/19 03:21:43;;;;;;;;;9.25;8.00;;;;;26.12;35.01;101263.09;5095006;27;49821;-73
2022/07/19 03:24:09;;;;;;;;;9.50;8.75;;;;;26.20;35.18;101273.59;5095068;27;49723;-69
2022/07/19 03:26:34;;;;;;;;;8.25;7.75;;;;;26.17;35.32;101274.59;5094829;27;49816;-74
2022/07/19 03:28:59;;;;;;;;;10.00;9.00;;;;;26.05;35.47;101261.56;5094698;27;50767;-69
2022/07/19 03:31:25;;;;;;;;;8.25;7.75;;;;;26.12;35.36;101275.69;5094779;27;49793;-68
2022/07/19 03:33:50;;;;;;;;;7.25;7.25;;;;;26.06;35.25;101278.63;5095004;27;50410;-73
2022/07/19 03:36:15;;;;;;;;;7.25;7.00;;;;;26.02;35.69;101279.63;5094932;27;49956;-73
2022/07/19 03:38:41;;;;;;;;;12.00;9.50;;;;;25.96;35.19;101278.94;5094485;27;53278;-73
2022/07/19 03:41:06;;;;;;;;;11.75;8.75;;;;;25.94;35.46;101279.91;5094368;27;49758;-72
2022/07/19 03:43:31;;;;;;;;;8.25;8.25;;;;;25.83;35.46;101263.25;5094307;27;50409;-73
2022/07/19 03:45:57;;;;;;;;;11.75;9.50;;;;;25.87;35.93;101271.19;5094744;27;49966;-72
2022/07/19 03:48:22;;;;;;;;;7.75;7.75;;;;;25.77;35.77;101267.06;5094340;27;50482;-73
2022/07/19 03:50:47;;;;;;;;;10.00;10.00;;;;;25.85;35.41;101278.41;5094458;27;49644;-73
2022/07/19 03:53:13;;;;;;;;;11.00;10.25;;;;;25.81;35.36;101273.19;5094494;27;49694;-74
2022/07/19 03:55:39;;;;;;;;;7.75;6.00;;;;;25.80;35.73;101271.44;5094645;27;50062;-74
2022/07/19 03:58:04;;;;;;;;;11.25;9.25;;;;;25.76;35.72;101273.34;5093386;27;49712;-72
2022/07/19 04:00:30;;;;;;;;;9.75;8.25;;;;;25.76;36.09;101284.09;5094280;27;49859;-71
2022/07/19 04:02:56;;;;;;;;;24.00;14.50;;;;;25.69;36.11;101272.66;5094428;27;49762;-74
2022/07/19 04:05:21;;;;;;;;;22.75;13.75;;;;;25.51;36.18;101242.81;5094564;27;49952;-73
2022/07/19 04:07:46;;;;;;;;;15.00;9.25;;;;;25.64;35.74;101266.53;5093997;27;49757;-72
2022/07/19 04:10:12;;;;;;;;;14.00;12.75;;;;;25.69;35.65;101271.78;5094251;27;49728;-71
2022/07/19 04:12:37;;;;;;;;;13.50;10.75;;;;;25.60;35.99;101261.31;5093927;27;49588;-72
2022/07/19 04:15:03;;;;;;;;;21.25;11.75;;;;;25.61;35.71;101255.88;5094335;27;49789;-73
2022/07/19 04:17:28;;;;;;;;;21.00;13.75;;;;;25.71;36.15;101272.63;5093786;27;49624;-68
2022/07/19 04:19:54;;;;;;;;;16.75;12.00;;;;;25.70;35.64;101276.25;5093979;27;50003;-71
2022/07/19 04:22:19;;;;;;;;;18.50;15.75;;;;;25.67;35.78;101274.50;5094227;27;49596;-73
2022/07/19 04:24:44;;;;;;;;;19.75;11.75;;;;;25.53;36.16;101255.25;5094354;27;49950;-75
2022/07/19 04:27:10;;;;;;;;;15.50;11.50;;;;;25.64;35.85;101274.59;5093614;27;49962;-71
2022/07/19 04:29:35;;;;;;;;;8.00;8.00;;;;;25.67;36.07;101274.50;5094011;27;49623;-71
2022/07/19 04:32:01;;;;;;;;;11.25;10.50;;;;;25.56;35.99;101259.66;5093868;27;49841;-71
2022/07/19 04:34:26;;;;;;;;;17.25;11.50;;;;;25.62;35.73;101268.41;5094179;27;49716;-70
2022/07/19 04:36:51;;;;;;;;;15.75;14.00;;;;;25.61;36.29;101269.34;5093800;27;50422;-71
2022/07/19 04:39:17;;;;;;;;;13.75;11.50;;;;;25.53;36.27;101249.88;5093828;27;49653;-70
2022/07/19 04:41:42;;;;;;;;;18.00;14.00;;;;;25.65;36.05;101270.09;5093571;27;49605;-70
2022/07/19 04:44:07;;;;;;;;;15.75;12.75;;;;;25.64;36.02;101266.53;5093886;27;49880;-71
2022/07/19 04:46:33;;;;;;;;;11.75;7.50;;;;;25.64;35.72;101266.53;5093672;27;50516;-69
2022/07/19 04:48:58;;;;;;;;;10.75;9.50;;;;;25.70;35.66;101265.50;5093865;27;49710;-69
2022/07/19 04:51:23;;;;;;;;;11.75;10.00;;;;;25.65;35.84;101256.66;5092483;27;49742;-69
2022/07/19 04:53:49;;;;;;;;;12.00;10.50;;;;;25.72;35.85;101263.63;5093991;27;49762;-73
2022/07/19 04:56:14;;;;;;;;;17.00;14.25;;;;;25.74;35.93;101263.56;5093282;27;53348;-70
2022/07/19 04:58:39;;;;;;;;;13.75;12.00;;;;;25.75;35.99;101262.63;5093497;27;49916;-71
2022/07/19 05:01:05;;;;;;;;;14.25;10.75;;;;;25.56;35.88;101214.81;5093861;27;49825;-74
2022/07/19 05:03:30;;;;;;;;;10.00;10.00;;;;;25.88;35.85;101262.19;5093764;27;49621;-73
2022/07/19 05:05:56;;;;;;;;;18.00;12.00;;;;;25.75;35.86;101230.38;5093322;27;52920;-73
2022/07/19 05:08:21;;;;;;;;;15.00;14.00;;;;;25.91;35.81;101255.81;5093454;27;49592;-72
2022/07/19 05:10:46;;;;;;;;;14.00;12.50;;;;;25.95;36.15;101257.44;5096167;27;51022;-72
2022/07/19 05:13:11;;;;;;;;;17.25;14.50;;;;;25.92;35.54;101252.19;5095691;27;49936;-71
2022/07/19 05:15:37;;;;;;;;;14.25;13.75;;;;;26.00;35.59;101255.47;5096983;27;51176;-79
2022/07/19 05:18:02;;;;;;;;;12.75;12.00;;;;;26.01;35.41;101257.22;5097064;27;49692;-76
2022/07/19 05:20:28;;;;;;;;;10.75;9.75;;;;;25.92;35.42;101236.91;5097163;27;49897;-74
2022/07/19 05:22:53;;;;;;;;;11.75;11.75;;;;;25.93;35.60;101230.59;5097212;27;49898;-73
2022/07/19 05:25:19;;;;;;;;;16.25;12.50;;;;;26.06;35.43;101249.91;5096791;27;49762;-68
2022/07/19 05:27:44;;;;;;;;;15.00;14.25;;;;;26.07;35.32;101245.38;5096548;27;49724;-67
2022/07/19 05:30:11;;;;;;;;;13.25;10.00;;;;;26.10;35.49;101254.22;5096943;27;49806;-69
2022/07/19 05:32:37;;;;;;;;;14.75;13.75;;;;;26.14;35.17;101249.59;5097002;27;49644;-70
2022/07/19 05:35:02;;;;;;;;;10.50;10.25;;;;;26.17;35.77;101247.69;5096574;27;50361;-71
2022/07/19 05:37:28;;;;;;;;;14.75;11.75;;;;;26.13;35.37;101237.94;5096639;27;49713;-68
2022/07/19 05:39:53;;;;;;;;;12.50;10.50;;;;;26.24;35.53;101243.81;5100084;27;49976;-70
2022/07/19 05:42:19;;;;;;;;;16.00;13.50;;;;;26.23;35.72;101244.75;5096586;27;49705;-72
2022/07/19 05:44:44;;;;;;;;;8.00;8.00;;;;;26.28;35.13;101243.72;5096180;27;50490;-70
2022/07/19 05:47:09;;;;;;;;;11.00;11.00;;;;;26.30;35.14;101241.84;5095555;27;49601;-74
2022/07/19 05:49:46;;;;;;;;;15.75;11.75;;;;;26.19;34.92;101210.84;5098579;27;50111;-78
2022/07/19 05:52:12;;;;;;;;;11.50;11.25;;;;;26.40;35.45;101238.78;5095836;27;49819;-72
2022/07/19 05:54:37;;;;;;;;;9.00;8.25;;;;;26.42;35.10;101238.72;5096067;27;49745;-73
2022/07/19 05:57:03;;;;;;;;;14.75;13.00;;;;;26.46;35.19;101235.00;5096313;27;49589;-72
2022/07/19 05:59:28;;;;;;;;;11.00;10.50;;;;;26.50;35.34;101237.50;5096149;27;49732;-72
2022/07/19 06:01:53;;;;;;;;;12.25;10.75;;;;;26.51;34.87;101233.00;5095010;27;49977;-72
2022/07/19 06:04:19;;;;;;;;;16.25;14.25;;;;;26.50;35.03;101233.94;5100669;27;51405;-73
2022/07/19 06:06:44;;;;;;;;;11.75;9.50;;;;;26.59;35.42;101230.91;5113893;27;49627;-71
2022/07/19 06:09:12;;;;;;;;;16.25;12.50;;;;;26.65;35.41;101238.75;5115257;27;50341;-67
2022/07/19 06:11:39;;;;;;;;;11.25;9.50;;;;;26.63;35.11;101221.75;5116751;27;49818;-72
2022/07/19 06:14:06;;;;;;;;;10.50;10.50;;;;;26.73;34.75;101230.34;5115890;27;50485;-72
2022/07/19 06:16:32;;;;;;;;;15.00;12.75;;;;;26.79;34.56;101231.00;5116798;27;49694;-71
2022/07/19 06:18:57;;;;;;;;;21.00;12.00;;;;;26.80;34.95;101223.81;5101006;27;49856;-71
2022/07/19 06:21:23;;;;;;;;;14.00;13.75;;;;;26.87;34.95;101222.63;5095741;27;50052;-70
2022/07/19 06:23:49;;;;;;;;;12.25;12.25;;;;;26.92;34.49;101220.63;5097631;27;50355;-71
2022/07/19 06:26:14;;;;;;;;;15.00;12.75;;;;;26.98;34.91;101216.81;5110740;27;50088;-71
2022/07/19 06:28:40;;;;;;;;;17.75;17.75;;;;;27.03;34.90;101217.56;5093732;27;49708;-71
2022/07/19 06:31:13;;;;;;;;;24.25;15.75;;;;;27.10;34.50;101216.34;5096240;27;49800;-72
2022/07/19 06:33:40;;;;;;;;;15.00;12.25;;;;;27.16;35.02;101210.72;5092249;27;50053;-72
2022/07/19 06:36:05;;;;;;;;;14.50;12.25;;;;;27.22;34.74;101207.78;5101510;27;49581;-72
2022/07/19 06:38:31;;;;;;;;;14.50;12.75;;;;;27.30;34.45;101205.63;5115894;27;49901;-71
2022/07/19 06:40:56;;;;;;;;;14.75;13.75;;;;;27.36;34.21;101197.28;5116457;27;49407;-71
2022/07/19 06:43:21;;;;;;;;;14.75;13.50;;;;;27.43;34.27;101197.91;5115414;27;57485;-72
2022/07/19 06:45:47;;;;;;;;;20.25;18.25;;;;;27.51;34.24;101190.38;5114220;27;50239;-71
2022/07/19 06:48:12;;;;;;;;;15.50;11.50;;;;;27.58;34.22;101185.56;5102926;27;50155;-73
2022/07/19 06:50:37;;;;;;;;;15.75;13.75;;;;;27.70;34.34;101195.91;5111670;27;49714;-72
2022/07/19 06:53:03;;;;;;;;;14.75;13.25;;;;;27.80;33.62;101194.53;5115451;27;57409;-72
2022/07/19 06:55:28;;;;;;;;;13.00;12.50;;;;;27.91;33.66;101189.53;5116170;27;49593;-72
2022/07/19 06:57:53;;;;;;;;;19.50;12.25;;;;;27.91;33.62;101173.34;5098888;27;49869;-71
2022/07/19 07:00:19;;;;;;;;;12.75;12.75;;;;;28.17;33.09;101193.75;5095258;27;49674;-72
2022/07/19 07:02:44;;;;;;;;;15.00;13.00;;;;;28.28;33.06;101190.63;5095137;27;49629;-73
2022/07/19 07:05:11;;;;;;;;;12.75;11.50;;;;;28.37;32.90;101195.56;5095278;27;49794;-72
2022/07/19 07:07:39;;;;;;;;;14.00;11.75;;;;;28.48;32.17;101189.69;5106949;27;49996;-78
2022/07/19 07:10:06;;;;;;;;;16.50;12.75;;;;;28.64;31.96;101189.81;5115659;27;49677;-77
2022/07/19 07:12:32;;;;;;;;;12.00;12.00;;;;;28.62;31.85;101173.69;5115521;27;50859;-72
2022/07/19 07:14:58;;;;;;;;;13.75;12.75;;;;;28.85;31.61;101188.78;5097037;27;49860;-76
2022/07/19 07:17:23;;;;;;;;;11.25;10.75;;;;;28.97;31.01;101188.25;5109969;27;50011;-75
2022/07/19 07:19:48;;;;;;;;;16.00;14.25;;;;;29.02;30.78;101179.91;5094867;27;49934;-69
2022/07/19 07:22:14;;;;;;;;;12.25;10.00;;;;;29.14;31.24;101179.28;5094299;27;56034;-83
2022/07/19 07:24:39;;;;;;;;;13.75;13.50;;;;;29.20;30.67;101167.28;5101493;27;49726;-72
2022/07/19 07:27:05;;;;;;;;;13.25;10.50;;;;;29.37;30.22;101167.31;5094795;27;49636;-77
2022/07/19 07:29:30;;;;;;;;;12.00;12.00;;;;;29.46;29.87;101157.88;5111550;27;49561;-81
2022/07/19 07:31:56;;;;;;;;;14.25;13.75;;;;;29.67;29.35;101169.44;5093687;27;49915;-76
2022/07/19 07:34:22;;;;;;;;;16.50;15.50;;;;;29.76;29.61;101161.69;5094732;27;49746;-83
2022/07/19 07:36:47;;;;;;;;;14.50;10.25;;;;;29.83;29.58;101156.84;5096548;27;49770;-75
2022/07/19 07:39:13;;;;;;;;;12.75;10.75;;;;;29.81;29.57;101145.22;5114483;27;49857;-82
2022/07/19 07:41:39;;;;;;;;;9.75;9.75;;;;;29.88;29.18;101143.94;5115348;27;49836;-72
2022/07/19 07:44:05;;;;;;;;;14.50;14.00;;;;;30.05;28.67;101146.59;5095841;27;50096;-73
2022/07/19 07:46:31;;;;;;;;;15.75;14.00;;;;;30.15;28.82;101155.13;5094825;27;49788;-77
2022/07/19 07:48:56;;;;;;;;;14.75;13.75;;;;;30.18;28.88;101147.72;5094824;27;50020;-71
2022/07/19 07:51:22;;;;;;;;;17.00;15.75;;;;;30.27;28.89;101150.88;5094152;27;50315;-74
2022/07/19 07:53:47;;;;;;;;;10.75;10.75;;;;;30.14;28.56;101113.66;5094268;27;49863;-75
2022/07/19 07:56:12;;;;;;;;;14.00;13.00;;;;;30.44;28.79;101139.97;5101167;27;49683;-68
2022/07/19 07:58:38;;;;;;;;;14.00;14.00;;;;;30.54;28.17;101134.94;5098545;27;49815;-63
2022/07/19 08:01:03;;;;;;;;;12.75;12.75;;;;;30.47;28.47;101113.59;5093863;27;49816;-69
2022/07/19 08:03:29;;;;;;;;;15.00;12.75;;;;;30.62;28.35;101124.53;5094911;27;49763;-67
2022/07/19 08:05:57;;;;;;;;;15.00;11.50;;;;;30.60;27.75;101111.06;5091936;27;49865;-71
2022/07/19 08:08:26;;;;;;;;;15.25;13.25;;;;;30.72;28.18;101126.66;5094480;27;50099;-78
2022/07/19 08:10:58;;;;;;;;;16.50;14.00;;;;;30.83;27.94;101131.44;5093928;27;50431;-79
2022/07/19 08:13:23;;;;;;;;;15.25;13.50;;;;;30.67;27.51;101081.81;5092250;27;49802;-78
2022/07/19 08:15:50;;;;;;;;;13.50;12.75;;;;;30.93;27.61;101118.25;5094052;27;49790;-78
2022/07/19 08:18:16;;;;;;;;;12.50;11.25;;;;;30.92;27.31;101094.81;5094003;27;50018;-75
2022/07/19 08:20:41;;;;;;;;;10.25;10.25;;;;;30.84;27.50;101072.69;5088109;27;50203;-80
2022/07/19 08:23:07;;;;;;;;;15.00;14.00;;;;;30.93;27.03;101069.44;5109303;27;49703;-79
2022/07/19 08:25:34;;;;;;;;;14.00;11.00;;;;;31.19;27.70;101098.59;5111238;27;49839;-68
2022/07/19 08:27:59;;;;;;;;;17.00;14.25;;;;;31.23;27.53;101096.59;5094268;27;49739;-65
2022/07/19 08:30:25;;;;;;;;;14.25;14.25;;;;;31.23;26.68;101085.75;5093476;27;49675;-65
2022/07/19 08:32:50;;;;;;;;;14.75;13.50;;;;;31.43;26.27;101096.25;5094059;27;49512;-72
2022/07/19 08:35:16;;;;;;;;;14.00;12.50;;;;;31.56;26.00;101102.69;5092932;27;49663;-77
2022/07/19 08:37:42;;;;;;;;;14.50;14.50;;;;;31.61;26.38;101095.13;5101360;27;49883;-65
2022/07/19 08:40:10;;;;;;;;;13.50;12.00;;;;;31.68;26.17;101098.34;5093815;27;49619;-66
2022/07/19 08:42:36;;;;;;;;;12.00;12.00;;;;;31.59;25.47;101061.78;5087656;27;49844;-76
2022/07/19 08:45:06;;;;;;;;;11.50;11.50;;;;;31.81;26.15;101087.63;5102189;27;49862;-75
2022/07/19 08:47:31;;;;;;;;;12.75;12.75;;;;;31.78;25.55;101071.53;5118216;27;49768;-65
2022/07/19 08:49:59;;;;;;;;;11.25;10.00;;;;;31.98;25.43;101098.28;5097407;27;50940;-65
2022/07/19 08:52:25;;;;;;;;;11.00;9.00;;;;;32.00;24.88;101090.91;5097280;27;49724;-75
2022/07/19 08:54:51;;;;;;;;;10.75;10.75;;;;;31.82;25.43;101038.66;5096228;27;49825;-73
2022/07/19 09:00:01;;;;;;;;;10.25;8.50;;;;;32.19;25.23;101085.19;5117395;27;49907;-74
2022/07/19 09:02:26;;;;;;;;;15.00;12.50;;;;;31.81;24.93;101000.75;5098691;27;49690;-72
2022/07/19 09:05:05;;;;;;;;;13.50;12.25;;;;;32.31;24.65;101086.25;5114155;27;49627;-79
2022/07/19 09:07:30;;;;;;;;;13.50;12.25;;;;;32.43;23.28;101077.34;5112898;27;49571;-79
2022/07/19 09:10:15;;;;;;;;;11.25;9.25;;;;;32.43;23.25;101078.19;5083417;27;50722;-77
2022/07/19 09:13:04;;;;;;;;;12.75;12.75;;;;;32.45;23.72;101057.22;5097002;27;49827;-77
2022/07/19 09:15:49;;;;;;;;;10.25;10.25;;;;;32.65;24.27;101068.63;5108785;27;49702;-78
2022/07/19 09:18:26;;;;;;;;;16.25;15.50;;;;;32.35;24.19;100992.72;5117696;27;49608;-76
2022/07/19 09:20:55;;;;;;;;;15.25;12.75;;;;;32.61;24.23;101038.03;5076261;27;50442;-78
2022/07/19 09:23:21;;;;;;;;;12.50;11.25;;;;;32.81;24.33;101063.00;5088866;27;49866;-75
2022/07/19 09:25:50;;;;;;;;;9.75;9.25;;;;;32.78;23.91;101047.78;5096536;27;49999;-74
2022/07/19 09:28:17;;;;;;;;;9.25;9.25;;;;;32.91;24.19;101050.56;5096811;27;49908;-74
2022/07/19 09:30:45;;;;;;;;;12.50;11.50;;;;;32.85;23.31;101032.84;5095037;27;50892;-74
2022/07/19 09:33:16;;;;;;;;;8.50;8.50;;;;;32.97;23.04;101039.28;5092865;27;49898;-77
2022/07/19 09:35:45;;;;;;;;;13.50;11.50;;;;;32.94;22.67;101006.88;5080566;27;49709;-81
2022/07/19 09:38:18;;;;;;;;;10.25;8.25;;;;;33.25;22.38;101040.97;5096960;27;49613;-80
2022/07/19 09:40:43;;;;;;;;;10.75;8.75;;;;;33.41;21.93;101048.97;5096295;27;50465;-80
2022/07/19 09:43:09;;;;;;;;;11.25;11.25;;;;;33.41;22.00;101017.19;5095878;27;49897;-78
2022/07/19 09:45:34;;;;;;;;;14.75;13.00;;;;;33.38;22.59;101011.94;5096037;27;50190;-77
2022/07/19 09:48:03;;;;;;;;;7.75;7.75;;;;;33.55;22.22;101027.94;5096366;27;49796;-69
2022/07/19 09:50:30;;;;;;;;;13.25;13.25;;;;;33.41;21.51;100995.41;5096396;27;49573;-71
2022/07/19 09:52:58;;;;;;;;;10.75;10.75;;;;;33.49;21.60;100993.03;5096344;27;49727;-68
2022/07/19 09:55:24;;;;;;;;;17.00;15.75;;;;;33.80;21.10;101018.91;5095301;27;49859;-78
2022/07/19 09:57:51;;;;;;;;;12.50;10.25;;;;;33.74;21.22;100994.81;5094964;27;49902;-68
2022/07/19 10:00:20;;;;;;;;;13.50;11.00;;;;;33.96;21.10;101018.66;5095748;27;50000;-74
2022/07/19 10:02:55;;;;;;;;;9.75;9.25;;;;;34.02;20.49;101007.34;5096142;27;49624;-80
2022/07/19 10:05:21;;;;;;;;;10.50;10.50;;;;;34.18;19.93;101011.66;5095902;27;49828;-74
2022/07/19 10:07:47;;;;;;;;;10.00;10.00;;;;;34.21;20.27;101004.13;5096201;27;49741;-79
2022/07/19 10:10:16;;;;;;;;;9.25;9.25;;;;;34.10;20.44;100987.72;5095148;27;50234;-80
2022/07/19 10:12:44;;;;;;;;;10.50;10.00;;;;;34.34;19.51;101013.09;5095729;27;49912;-78
2022/07/19 10:15:12;;;;;;;;;11.50;9.50;;;;;34.40;20.26;100998.19;5095691;27;49805;-82
2022/07/19 10:17:45;;;;;;;;;9.25;9.25;;;;;34.22;19.65;100951.38;5095772;27;49729;-81
2022/07/19 10:20:16;;;;;;;;;9.25;9.25;;;;;34.55;20.37;100987.97;5095745;27;50683;-74
2022/07/19 10:22:41;;;;;;;;;9.50;9.50;;;;;34.60;20.01;100977.59;5095562;27;49765;-71
2022/07/19 10:25:15;;;;;;;;;13.00;11.25;;;;;34.67;19.44;100985.19;5095591;27;49758;-76
2022/07/19 10:27:43;;;;;;;;;10.00;9.50;;;;;34.72;19.04;100955.69;5095746;27;49608;-72
2022/07/19 10:30:11;;;;;;;;;9.00;8.00;;;;;34.96;19.32;100971.19;5095273;27;49634;-79
2022/07/19 10:32:41;;;;;;;;;13.00;13.00;;;;;34.81;19.70;100923.25;5095401;27;49577;-79
2022/07/19 10:35:21;;;;;;;;;11.25;10.50;;;;;35.07;19.13;100957.56;5095571;27;49892;-76
2022/07/19 10:37:55;;;;;;;;;11.25;10.50;;;;;34.83;18.93;100905.78;5095286;27;49651;-75
2022/07/19 10:40:43;;;;;;;;;8.00;8.00;;;;;35.22;18.91;100950.88;5093587;27;50597;-67
2022/07/19 10:43:13;;;;;;;;;10.50;10.50;;;;;35.30;18.52;100950.28;5095244;27;49784;-77
2022/07/19 10:45:59;;;;;;;;;9.75;9.75;;;;;35.40;18.50;100950.44;5095465;27;49727;-69
2022/07/19 10:48:53;;;;;;;;;8.00;8.00;;;;;35.45;18.43;100940.03;5095520;27;49707;-68
2022/07/19 10:51:29;;;;;;;;;10.75;10.50;;;;;35.43;18.20;100931.97;5095226;27;49561;-74
2022/07/19 10:54:03;;;;;;;;;12.75;10.50;;;;;35.45;18.33;100923.66;5095310;27;49861;-71
2022/07/19 10:56:41;;;;;;;;;11.00;10.00;;;;;35.67;17.78;100920.03;5095174;27;49707;-73
2022/07/19 10:59:10;;;;;;;;;11.25;9.25;;;;;35.90;17.12;100924.50;5095353;27;49747;-78
2022/07/19 11:01:39;;;;;;;;;9.75;8.25;;;;;35.88;17.61;100920.16;5095164;27;49835;-72
2022/07/19 11:04:24;;;;;;;;;10.50;9.75;;;;;35.96;18.15;100914.94;5095262;27;49715;-74
2022/07/19 11:06:50;;;;;;;;;10.50;10.50;;;;;35.74;18.13;100867.53;5095264;27;49572;-77
2022/07/19 11:09:15;;;;;;;;;10.25;10.25;;;;;36.06;17.73;100919.50;5095293;27;49927;-69
2022/07/19 11:11:41;;;;;;;;;13.25;7.75;;;;;36.07;16.91;100909.44;5094745;27;51612;-76
2022/07/19 11:14:06;;;;;;;;;10.25;10.25;;;;;36.08;17.20;100892.03;5094878;27;49726;-70
2022/07/19 11:16:31;;;;;;;;;10.75;8.50;;;;;36.24;16.68;100888.88;5094996;27;49681;-68